sensor_id;sensor_type;location;lat;lon;timestamp;P1;durP1;ratioP1;P2;durP2;ratioP2
77287;SDS011;66345;42.694;23.346;2023-02-21T00:01:48;14.48;;;4.30;;
77287;SDS011;66345;42.694;23.346;2023-02-21T00:04:33;12.75;;;5.05;;
77287;SDS011;66345;42.694;23.346;2023-02-21T00:07:17;11.95;;;4.68;;
77287;SDS011;66345;42.694;23.346;2023-02-21T00:10:01;10.60;;;4.80;;
77287;SDS011;66345;42.694;23.346;2023-02-21T00:12:46;11.77;;;4.95;;
77287;SDS011;66345;42.694;23.346;2023-02-21T00:15:30;12.07;;;5.22;;
77287;SDS011;66345;42.694;23.346;2023-02-21T00:18:14;12.73;;;5.03;;
77287;SDS011;66345;42.694;23.346;2023-02-21T00:20:58;10.75;;;5.05;;
77287;SDS011;66345;42.694;23.346;2023-02-21T00:23:42;10.43;;;4.90;;
77287;SDS011;66345;42.694;23.346;2023-02-21T00:26:26;12.60;;;4.72;;
77287;SDS011;66345;42.694;23.346;2023-02-21T00:29:10;13.95;;;4.88;;
77287;SDS011;66345;42.694;23.346;2023-02-21T00:31:54;12.07;;;5.07;;
77287;SDS011;66345;42.694;23.346;2023-02-21T00:34:38;13.35;;;5.07;;
77287;SDS011;66345;42.694;23.346;2023-02-21T00:37:22;11.07;;;4.90;;
77287;SDS011;66345;42.694;23.346;2023-02-21T00:40:05;13.90;;;4.63;;
77287;SDS011;66345;42.694;23.346;2023-02-21T00:42:50;12.57;;;4.93;;
77287;SDS011;66345;42.694;23.346;2023-02-21T00:45:34;14.25;;;4.97;;
77287;SDS011;66345;42.694;23.346;2023-02-21T00:48:21;11.93;;;4.82;;
77287;SDS011;66345;42.694;23.346;2023-02-21T00:51:06;12.40;;;4.70;;
77287;SDS011;66345;42.694;23.346;2023-02-21T00:53:51;12.27;;;5.30;;
77287;SDS011;66345;42.694;23.346;2023-02-21T00:56:35;12.98;;;4.97;;
77287;SDS011;66345;42.694;23.346;2023-02-21T00:59:19;12.70;;;4.95;;
77287;SDS011;66345;42.694;23.346;2023-02-21T01:02:03;12.38;;;5.22;;
77287;SDS011;66345;42.694;23.346;2023-02-21T01:04:47;11.70;;;5.50;;
77287;SDS011;66345;42.694;23.346;2023-02-21T01:07:31;12.93;;;5.30;;
77287;SDS011;66345;42.694;23.346;2023-02-21T01:10:15;13.75;;;5.60;;
77287;SDS011;66345;42.694;23.346;2023-02-21T01:12:59;10.65;;;4.68;;
77287;SDS011;66345;42.694;23.346;2023-02-21T01:15:43;13.63;;;5.10;;
77287;SDS011;66345;42.694;23.346;2023-02-21T01:18:27;12.10;;;4.70;;
77287;SDS011;66345;42.694;23.346;2023-02-21T01:21:15;14.18;;;5.20;;
77287;SDS011;66345;42.694;23.346;2023-02-21T01:24:00;10.90;;;4.75;;
77287;SDS011;66345;42.694;23.346;2023-02-21T01:26:44;12.07;;;4.72;;
77287;SDS011;66345;42.694;23.346;2023-02-21T01:29:28;10.70;;;4.10;;
77287;SDS011;66345;42.694;23.346;2023-02-21T01:32:12;12.07;;;4.93;;
77287;SDS011;66345;42.694;23.346;2023-02-21T01:34:56;14.07;;;5.35;;
77287;SDS011;66345;42.694;23.346;2023-02-21T01:37:40;10.60;;;4.53;;
77287;SDS011;66345;42.694;23.346;2023-02-21T01:40:25;9.85;;;4.20;;
77287;SDS011;66345;42.694;23.346;2023-02-21T01:43:13;11.35;;;4.80;;
77287;SDS011;66345;42.694;23.346;2023-02-21T01:46:01;10.70;;;4.50;;
77287;SDS011;66345;42.694;23.346;2023-02-21T01:48:45;12.55;;;4.47;;
77287;SDS011;66345;42.694;23.346;2023-02-21T01:51:33;10.80;;;4.65;;
77287;SDS011;66345;42.694;23.346;2023-02-21T01:54:20;9.10;;;4.32;;
77287;SDS011;66345;42.694;23.346;2023-02-21T01:57:05;10.90;;;4.20;;
77287;SDS011;66345;42.694;23.346;2023-02-21T01:59:50;10.80;;;4.30;;
77287;SDS011;66345;42.694;23.346;2023-02-21T02:05:53;10.98;;;4.00;;
77287;SDS011;66345;42.694;23.346;2023-02-21T02:08:40;9.32;;;3.90;;
77287;SDS011;66345;42.694;23.346;2023-02-21T02:36:48;10.18;;;3.13;;
77287;SDS011;66345;42.694;23.346;2023-02-21T02:41:58;8.83;;;3.40;;
77287;SDS011;66345;42.694;23.346;2023-02-21T02:44:36;9.30;;;3.78;;
77287;SDS011;66345;42.694;23.346;2023-02-21T02:47:04;9.23;;;3.08;;
77287;SDS011;66345;42.694;23.346;2023-02-21T02:49:33;10.73;;;3.80;;
77287;SDS011;66345;42.694;23.346;2023-02-21T02:52:06;8.73;;;3.92;;
77287;SDS011;66345;42.694;23.346;2023-02-21T02:54:33;9.17;;;3.47;;
77287;SDS011;66345;42.694;23.346;2023-02-21T02:56:59;8.68;;;3.20;;
77287;SDS011;66345;42.694;23.346;2023-02-21T02:59:27;9.38;;;3.10;;
77287;SDS011;66345;42.694;23.346;2023-02-21T03:04:57;6.70;;;3.08;;
77287;SDS011;66345;42.694;23.346;2023-02-21T03:15:21;8.93;;;3.50;;
77287;SDS011;66345;42.694;23.346;2023-02-21T03:21:06;8.10;;;2.80;;
77287;SDS011;66345;42.694;23.346;2023-02-21T03:23:38;7.65;;;3.00;;
77287;SDS011;66345;42.694;23.346;2023-02-21T03:26:06;8.85;;;2.40;;
77287;SDS011;66345;42.694;23.346;2023-02-21T03:28:34;7.17;;;2.30;;
77287;SDS011;66345;42.694;23.346;2023-02-21T03:31:01;8.63;;;2.70;;
77287;SDS011;66345;42.694;23.346;2023-02-21T03:33:29;7.97;;;2.80;;
77287;SDS011;66345;42.694;23.346;2023-02-21T03:35:57;8.70;;;2.50;;
77287;SDS011;66345;42.694;23.346;2023-02-21T03:38:26;8.30;;;2.80;;
77287;SDS011;66345;42.694;23.346;2023-02-21T03:40:52;7.77;;;2.70;;
77287;SDS011;66345;42.694;23.346;2023-02-21T03:43:18;5.95;;;2.30;;
77287;SDS011;66345;42.694;23.346;2023-02-21T03:45:43;6.80;;;2.37;;
77287;SDS011;66345;42.694;23.346;2023-02-21T03:48:09;9.17;;;2.43;;
77287;SDS011;66345;42.694;23.346;2023-02-21T03:50:34;10.23;;;2.63;;
77287;SDS011;66345;42.694;23.346;2023-02-21T03:53:00;8.38;;;2.30;;
77287;SDS011;66345;42.694;23.346;2023-02-21T03:55:25;6.97;;;2.10;;
77287;SDS011;66345;42.694;23.346;2023-02-21T03:57:51;7.10;;;2.50;;
77287;SDS011;66345;42.694;23.346;2023-02-21T04:00:16;4.97;;;2.33;;
77287;SDS011;66345;42.694;23.346;2023-02-21T04:02:42;8.88;;;2.70;;
77287;SDS011;66345;42.694;23.346;2023-02-21T04:05:08;10.00;;;2.63;;
77287;SDS011;66345;42.694;23.346;2023-02-21T04:07:33;7.03;;;2.65;;
77287;SDS011;66345;42.694;23.346;2023-02-21T04:09:59;6.50;;;2.60;;
77287;SDS011;66345;42.694;23.346;2023-02-21T04:12:24;6.67;;;2.10;;
77287;SDS011;66345;42.694;23.346;2023-02-21T04:14:50;8.20;;;2.60;;
77287;SDS011;66345;42.694;23.346;2023-02-21T04:17:16;11.07;;;2.67;;
77287;SDS011;66345;42.694;23.346;2023-02-21T04:19:42;7.55;;;2.60;;
77287;SDS011;66345;42.694;23.346;2023-02-21T04:22:08;6.20;;;2.28;;
77287;SDS011;66345;42.694;23.346;2023-02-21T04:24:34;8.70;;;2.53;;
77287;SDS011;66345;42.694;23.346;2023-02-21T04:26:59;8.10;;;2.72;;
77287;SDS011;66345;42.694;23.346;2023-02-21T04:29:26;8.82;;;2.90;;
77287;SDS011;66345;42.694;23.346;2023-02-21T04:31:51;8.32;;;2.85;;
77287;SDS011;66345;42.694;23.346;2023-02-21T04:34:17;8.17;;;2.50;;
77287;SDS011;66345;42.694;23.346;2023-02-21T04:36:43;9.00;;;2.75;;
77287;SDS011;66345;42.694;23.346;2023-02-21T04:39:08;11.20;;;2.87;;
77287;SDS011;66345;42.694;23.346;2023-02-21T04:41:34;6.63;;;3.05;;
77287;SDS011;66345;42.694;23.346;2023-02-21T04:43:59;8.33;;;2.83;;
77287;SDS011;66345;42.694;23.346;2023-02-21T04:46:25;6.97;;;2.40;;
77287;SDS011;66345;42.694;23.346;2023-02-21T04:48:50;11.40;;;2.50;;
77287;SDS011;66345;42.694;23.346;2023-02-21T04:51:17;6.13;;;2.45;;
77287;SDS011;66345;42.694;23.346;2023-02-21T04:53:45;9.40;;;2.90;;
77287;SDS011;66345;42.694;23.346;2023-02-21T04:56:12;9.07;;;2.97;;
77287;SDS011;66345;42.694;23.346;2023-02-21T04:58:38;7.63;;;2.65;;
77287;SDS011;66345;42.694;23.346;2023-02-21T05:01:03;8.37;;;2.93;;
77287;SDS011;66345;42.694;23.346;2023-02-21T05:03:29;13.40;;;3.20;;
77287;SDS011;66345;42.694;23.346;2023-02-21T05:05:55;11.33;;;3.33;;
77287;SDS011;66345;42.694;23.346;2023-02-21T05:08:20;14.53;;;3.40;;
77287;SDS011;66345;42.694;23.346;2023-02-21T05:10:46;8.70;;;3.47;;
77287;SDS011;66345;42.694;23.346;2023-02-21T05:13:12;10.13;;;3.80;;
77287;SDS011;66345;42.694;23.346;2023-02-21T05:15:38;8.23;;;3.22;;
77287;SDS011;66345;42.694;23.346;2023-02-21T05:18:03;12.07;;;3.50;;
77287;SDS011;66345;42.694;23.346;2023-02-21T05:20:29;12.33;;;4.23;;
77287;SDS011;66345;42.694;23.346;2023-02-21T05:22:54;8.23;;;3.33;;
77287;SDS011;66345;42.694;23.346;2023-02-21T05:25:21;8.10;;;3.22;;
77287;SDS011;66345;42.694;23.346;2023-02-21T05:27:47;9.37;;;3.30;;
77287;SDS011;66345;42.694;23.346;2023-02-21T05:30:14;10.68;;;3.00;;
77287;SDS011;66345;42.694;23.346;2023-02-21T05:32:42;9.98;;;3.42;;
77287;SDS011;66345;42.694;23.346;2023-02-21T05:35:08;9.63;;;3.25;;
77287;SDS011;66345;42.694;23.346;2023-02-21T05:37:34;10.02;;;3.20;;
77287;SDS011;66345;42.694;23.346;2023-02-21T05:40:00;10.18;;;3.88;;
77287;SDS011;66345;42.694;23.346;2023-02-21T05:42:26;11.90;;;3.40;;
77287;SDS011;66345;42.694;23.346;2023-02-21T05:44:52;13.07;;;3.60;;
77287;SDS011;66345;42.694;23.346;2023-02-21T05:47:17;9.47;;;3.47;;
77287;SDS011;66345;42.694;23.346;2023-02-21T05:49:42;11.88;;;3.83;;
77287;SDS011;66345;42.694;23.346;2023-02-21T05:52:12;9.88;;;4.10;;
77287;SDS011;66345;42.694;23.346;2023-02-21T05:54:38;11.27;;;3.70;;
77287;SDS011;66345;42.694;23.346;2023-02-21T05:57:04;9.52;;;3.78;;
77287;SDS011;66345;42.694;23.346;2023-02-21T05:59:29;12.37;;;3.60;;
77287;SDS011;66345;42.694;23.346;2023-02-21T06:01:55;11.50;;;4.07;;
77287;SDS011;66345;42.694;23.346;2023-02-21T06:04:21;12.25;;;3.85;;
77287;SDS011;66345;42.694;23.346;2023-02-21T06:06:47;8.63;;;3.50;;
77287;SDS011;66345;42.694;23.346;2023-02-21T06:09:13;8.70;;;3.75;;
77287;SDS011;66345;42.694;23.346;2023-02-21T06:11:39;9.10;;;3.40;;
77287;SDS011;66345;42.694;23.346;2023-02-21T06:14:05;13.90;;;4.07;;
77287;SDS011;66345;42.694;23.346;2023-02-21T06:16:33;10.25;;;3.92;;
77287;SDS011;66345;42.694;23.346;2023-02-21T06:19:00;9.73;;;3.30;;
77287;SDS011;66345;42.694;23.346;2023-02-21T06:21:27;13.17;;;4.60;;
77287;SDS011;66345;42.694;23.346;2023-02-21T06:23:52;8.23;;;3.17;;
77287;SDS011;66345;42.694;23.346;2023-02-21T06:26:18;7.83;;;3.03;;
77287;SDS011;66345;42.694;23.346;2023-02-21T06:28:45;12.77;;;3.97;;
77287;SDS011;66345;42.694;23.346;2023-02-21T06:31:11;13.00;;;4.23;;
77287;SDS011;66345;42.694;23.346;2023-02-21T06:33:36;13.70;;;4.32;;
77287;SDS011;66345;42.694;23.346;2023-02-21T06:36:06;14.03;;;4.10;;
77287;SDS011;66345;42.694;23.346;2023-02-21T06:38:39;14.85;;;3.92;;
77287;SDS011;66345;42.694;23.346;2023-02-21T06:41:07;28.88;;;5.05;;
77287;SDS011;66345;42.694;23.346;2023-02-21T06:43:33;11.15;;;3.35;;
77287;SDS011;66345;42.694;23.346;2023-02-21T06:46:02;12.00;;;2.78;;
77287;SDS011;66345;42.694;23.346;2023-02-21T06:48:28;25.92;;;4.75;;
77287;SDS011;66345;42.694;23.346;2023-02-21T06:50:54;11.98;;;3.33;;
77287;SDS011;66345;42.694;23.346;2023-02-21T06:53:19;9.18;;;2.80;;
77287;SDS011;66345;42.694;23.346;2023-02-21T06:55:44;11.93;;;3.37;;
77287;SDS011;66345;42.694;23.346;2023-02-21T06:58:10;22.23;;;10.30;;
77287;SDS011;66345;42.694;23.346;2023-02-21T07:00:35;23.37;;;9.83;;
77287;SDS011;66345;42.694;23.346;2023-02-21T07:03:01;12.48;;;4.43;;
77287;SDS011;66345;42.694;23.346;2023-02-21T07:05:27;9.50;;;3.33;;
77287;SDS011;66345;42.694;23.346;2023-02-21T07:07:53;25.75;;;10.40;;
77287;SDS011;66345;42.694;23.346;2023-02-21T07:10:18;11.70;;;3.60;;
77287;SDS011;66345;42.694;23.346;2023-02-21T07:12:44;12.45;;;3.60;;
77287;SDS011;66345;42.694;23.346;2023-02-21T07:15:09;13.27;;;4.17;;
77287;SDS011;66345;42.694;23.346;2023-02-21T07:17:35;10.93;;;3.97;;
77287;SDS011;66345;42.694;23.346;2023-02-21T07:20:00;10.67;;;4.10;;
77287;SDS011;66345;42.694;23.346;2023-02-21T07:22:26;12.15;;;3.60;;
77287;SDS011;66345;42.694;23.346;2023-02-21T07:24:56;8.68;;;3.80;;
77287;SDS011;66345;42.694;23.346;2023-02-21T07:27:21;19.50;;;4.50;;
77287;SDS011;66345;42.694;23.346;2023-02-21T07:29:47;11.68;;;3.85;;
77287;SDS011;66345;42.694;23.346;2023-02-21T07:32:13;15.30;;;4.77;;
77287;SDS011;66345;42.694;23.346;2023-02-21T07:34:39;12.35;;;4.93;;
77287;SDS011;66345;42.694;23.346;2023-02-21T07:37:05;13.77;;;4.25;;
77287;SDS011;66345;42.694;23.346;2023-02-21T07:39:31;10.82;;;4.13;;
77287;SDS011;66345;42.694;23.346;2023-02-21T07:41:56;15.45;;;5.82;;
77287;SDS011;66345;42.694;23.346;2023-02-21T07:44:22;13.55;;;4.30;;
77287;SDS011;66345;42.694;23.346;2023-02-21T07:46:47;14.03;;;4.10;;
77287;SDS011;66345;42.694;23.346;2023-02-21T07:49:13;15.37;;;4.63;;
77287;SDS011;66345;42.694;23.346;2023-02-21T07:51:38;16.90;;;4.30;;
77287;SDS011;66345;42.694;23.346;2023-02-21T07:54:04;8.77;;;3.88;;
77287;SDS011;66345;42.694;23.346;2023-02-21T07:56:29;11.27;;;4.33;;
77287;SDS011;66345;42.694;23.346;2023-02-21T07:58:54;9.40;;;3.97;;
77287;SDS011;66345;42.694;23.346;2023-02-21T08:01:21;12.47;;;4.00;;
77287;SDS011;66345;42.694;23.346;2023-02-21T08:03:50;10.82;;;3.72;;
77287;SDS011;66345;42.694;23.346;2023-02-21T08:06:16;12.50;;;4.10;;
77287;SDS011;66345;42.694;23.346;2023-02-21T08:08:43;10.97;;;3.90;;
77287;SDS011;66345;42.694;23.346;2023-02-21T08:11:09;14.77;;;5.13;;
77287;SDS011;66345;42.694;23.346;2023-02-21T08:13:34;15.43;;;4.70;;
77287;SDS011;66345;42.694;23.346;2023-02-21T08:15:59;16.77;;;4.97;;
77287;SDS011;66345;42.694;23.346;2023-02-21T08:18:25;11.52;;;4.15;;
77287;SDS011;66345;42.694;23.346;2023-02-21T08:20:50;11.77;;;4.37;;
77287;SDS011;66345;42.694;23.346;2023-02-21T08:23:17;14.38;;;4.50;;
77287;SDS011;66345;42.694;23.346;2023-02-21T08:25:45;13.27;;;4.50;;
77287;SDS011;66345;42.694;23.346;2023-02-21T08:28:11;13.68;;;4.95;;
77287;SDS011;66345;42.694;23.346;2023-02-21T08:30:38;16.38;;;4.32;;
77287;SDS011;66345;42.694;23.346;2023-02-21T08:33:03;10.70;;;4.10;;
77287;SDS011;66345;42.694;23.346;2023-02-21T08:35:29;10.95;;;4.10;;
77287;SDS011;66345;42.694;23.346;2023-02-21T08:37:55;10.43;;;3.85;;
77287;SDS011;66345;42.694;23.346;2023-02-21T08:40:21;9.53;;;4.30;;
77287;SDS011;66345;42.694;23.346;2023-02-21T08:42:48;16.30;;;3.80;;
77287;SDS011;66345;42.694;23.346;2023-02-21T08:45:15;11.23;;;3.90;;
77287;SDS011;66345;42.694;23.346;2023-02-21T08:47:42;12.23;;;4.70;;
77287;SDS011;66345;42.694;23.346;2023-02-21T08:50:08;11.90;;;4.35;;
77287;SDS011;66345;42.694;23.346;2023-02-21T08:52:33;11.20;;;4.27;;
77287;SDS011;66345;42.694;23.346;2023-02-21T08:54:59;12.70;;;4.60;;
77287;SDS011;66345;42.694;23.346;2023-02-21T08:57:24;13.63;;;4.67;;
77287;SDS011;66345;42.694;23.346;2023-02-21T08:59:50;11.65;;;4.43;;
77287;SDS011;66345;42.694;23.346;2023-02-21T09:02:16;11.37;;;3.80;;
77287;SDS011;66345;42.694;23.346;2023-02-21T09:04:43;12.68;;;4.45;;
77287;SDS011;66345;42.694;23.346;2023-02-21T09:07:16;10.98;;;4.00;;
77287;SDS011;66345;42.694;23.346;2023-02-21T09:09:43;12.87;;;3.97;;
77287;SDS011;66345;42.694;23.346;2023-02-21T09:12:09;11.73;;;4.32;;
77287;SDS011;66345;42.694;23.346;2023-02-21T09:14:35;13.68;;;4.30;;
77287;SDS011;66345;42.694;23.346;2023-02-21T09:17:03;13.48;;;4.43;;
77287;SDS011;66345;42.694;23.346;2023-02-21T09:19:29;11.13;;;4.20;;
77287;SDS011;66345;42.694;23.346;2023-02-21T09:21:54;10.13;;;4.20;;
77287;SDS011;66345;42.694;23.346;2023-02-21T09:24:20;12.13;;;4.87;;
77287;SDS011;66345;42.694;23.346;2023-02-21T09:26:50;10.95;;;4.57;;
77287;SDS011;66345;42.694;23.346;2023-02-21T09:29:19;9.48;;;4.10;;
77287;SDS011;66345;42.694;23.346;2023-02-21T09:31:48;11.82;;;4.15;;
77287;SDS011;66345;42.694;23.346;2023-02-21T09:34:14;8.73;;;4.10;;
77287;SDS011;66345;42.694;23.346;2023-02-21T09:36:40;10.90;;;4.00;;
77287;SDS011;66345;42.694;23.346;2023-02-21T09:39:06;11.77;;;3.97;;
77287;SDS011;66345;42.694;23.346;2023-02-21T09:41:33;7.47;;;3.53;;
77287;SDS011;66345;42.694;23.346;2023-02-21T09:44:00;10.45;;;4.13;;
77287;SDS011;66345;42.694;23.346;2023-02-21T09:46:37;10.93;;;4.25;;
77287;SDS011;66345;42.694;23.346;2023-02-21T09:49:15;10.37;;;4.60;;
77287;SDS011;66345;42.694;23.346;2023-02-21T09:51:47;9.98;;;4.20;;
77287;SDS011;66345;42.694;23.346;2023-02-21T09:54:31;12.65;;;5.63;;
77287;SDS011;66345;42.694;23.346;2023-02-21T09:56:58;12.82;;;4.63;;
77287;SDS011;66345;42.694;23.346;2023-02-21T09:59:25;10.75;;;4.75;;
77287;SDS011;66345;42.694;23.346;2023-02-21T10:10:11;11.97;;;5.07;;
77287;SDS011;66345;42.694;23.346;2023-02-21T10:15:39;11.85;;;5.03;;
77287;SDS011;66345;42.694;23.346;2023-02-21T10:20:56;12.07;;;5.25;;
77287;SDS011;66345;42.694;23.346;2023-02-21T10:23:30;11.47;;;5.30;;
77287;SDS011;66345;42.694;23.346;2023-02-21T10:26:00;9.88;;;4.63;;
77287;SDS011;66345;42.694;23.346;2023-02-21T10:28:33;9.48;;;4.30;;
77287;SDS011;66345;42.694;23.346;2023-02-21T10:31:00;7.72;;;4.53;;
77287;SDS011;66345;42.694;23.346;2023-02-21T10:33:31;8.48;;;4.82;;
77287;SDS011;66345;42.694;23.346;2023-02-21T10:36:00;8.93;;;4.63;;
77287;SDS011;66345;42.694;23.346;2023-02-21T10:38:25;11.87;;;4.27;;
77287;SDS011;66345;42.694;23.346;2023-02-21T10:40:58;9.13;;;4.10;;
77287;SDS011;66345;42.694;23.346;2023-02-21T10:43:35;7.07;;;2.80;;
77287;SDS011;66345;42.694;23.346;2023-02-21T10:46:07;6.18;;;2.78;;
77287;SDS011;66345;42.694;23.346;2023-02-21T10:48:45;5.13;;;2.58;;
77287;SDS011;66345;42.694;23.346;2023-02-21T10:51:12;5.27;;;2.00;;
77287;SDS011;66345;42.694;23.346;2023-02-21T10:53:41;5.05;;;2.45;;
77287;SDS011;66345;42.694;23.346;2023-02-21T10:58:59;4.35;;;2.17;;
77287;SDS011;66345;42.694;23.346;2023-02-21T11:02:20;5.93;;;2.70;;
77287;SDS011;66345;42.694;23.346;2023-02-21T11:04:29;4.70;;;1.97;;
77287;SDS011;66345;42.694;23.346;2023-02-21T11:07:00;6.15;;;1.88;;
77287;SDS011;66345;42.694;23.346;2023-02-21T11:09:37;4.13;;;1.40;;
77287;SDS011;66345;42.694;23.346;2023-02-21T11:12:22;5.38;;;1.83;;
77287;SDS011;66345;42.694;23.346;2023-02-21T11:17:26;3.70;;;1.40;;
77287;SDS011;66345;42.694;23.346;2023-02-21T11:19:54;6.50;;;3.03;;
77287;SDS011;66345;42.694;23.346;2023-02-21T11:27:44;3.75;;;1.27;;
77287;SDS011;66345;42.694;23.346;2023-02-21T11:30:48;5.55;;;1.13;;
77287;SDS011;66345;42.694;23.346;2023-02-21T11:33:28;5.38;;;1.40;;
77287;SDS011;66345;42.694;23.346;2023-02-21T11:38:44;3.20;;;0.90;;
77287;SDS011;66345;42.694;23.346;2023-02-21T11:43:59;4.35;;;1.20;;
77287;SDS011;66345;42.694;23.346;2023-02-21T11:46:39;4.22;;;1.70;;
77287;SDS011;66345;42.694;23.346;2023-02-21T11:51:40;4.47;;;1.90;;
77287;SDS011;66345;42.694;23.346;2023-02-21T11:54:15;4.18;;;1.25;;
77287;SDS011;66345;42.694;23.346;2023-02-21T12:04:58;4.10;;;1.60;;
77287;SDS011;66345;42.694;23.346;2023-02-21T12:07:45;4.75;;;1.48;;
77287;SDS011;66345;42.694;23.346;2023-02-21T12:11:16;4.97;;;1.52;;
77287;SDS011;66345;42.694;23.346;2023-02-21T12:13:22;5.93;;;2.08;;
77287;SDS011;66345;42.694;23.346;2023-02-21T12:18:50;9.30;;;1.90;;
77287;SDS011;66345;42.694;23.346;2023-02-21T12:21:27;4.35;;;1.38;;
77287;SDS011;66345;42.694;23.346;2023-02-21T12:26:46;3.25;;;1.02;;
77287;SDS011;66345;42.694;23.346;2023-02-21T12:43:31;5.10;;;1.23;;
77287;SDS011;66345;42.694;23.346;2023-02-21T12:46:08;5.57;;;1.10;;
77287;SDS011;66345;42.694;23.346;2023-02-21T12:51:18;6.25;;;1.40;;
77287;SDS011;66345;42.694;23.346;2023-02-21T12:53:53;5.85;;;1.38;;
77287;SDS011;66345;42.694;23.346;2023-02-21T12:59:16;4.35;;;1.60;;
77287;SDS011;66345;42.694;23.346;2023-02-21T13:01:44;5.13;;;1.70;;
77287;SDS011;66345;42.694;23.346;2023-02-21T13:07:02;4.90;;;1.40;;
77287;SDS011;66345;42.694;23.346;2023-02-21T13:12:08;3.90;;;1.50;;
77287;SDS011;66345;42.694;23.346;2023-02-21T13:17:25;4.68;;;1.35;;
77287;SDS011;66345;42.694;23.346;2023-02-21T13:19:53;4.43;;;1.90;;
77287;SDS011;66345;42.694;23.346;2023-02-21T13:25:57;4.30;;;1.40;;
77287;SDS011;66345;42.694;23.346;2023-02-21T13:28:27;3.60;;;1.30;;
77287;SDS011;66345;42.694;23.346;2023-02-21T13:31:00;3.33;;;1.20;;
77287;SDS011;66345;42.694;23.346;2023-02-21T13:33:35;3.95;;;1.20;;
77287;SDS011;66345;42.694;23.346;2023-02-21T13:36:29;3.45;;;1.17;;
77287;SDS011;66345;42.694;23.346;2023-02-21T13:39:17;3.65;;;1.33;;
77287;SDS011;66345;42.694;23.346;2023-02-21T13:42:08;4.28;;;1.40;;
77287;SDS011;66345;42.694;23.346;2023-02-21T13:44:40;5.85;;;1.60;;
77287;SDS011;66345;42.694;23.346;2023-02-21T13:47:14;4.47;;;1.38;;
77287;SDS011;66345;42.694;23.346;2023-02-21T13:49:57;6.53;;;2.00;;
77287;SDS011;66345;42.694;23.346;2023-02-21T13:52:24;4.30;;;1.60;;
77287;SDS011;66345;42.694;23.346;2023-02-21T14:03:02;5.60;;;1.73;;
77287;SDS011;66345;42.694;23.346;2023-02-21T14:06:21;4.65;;;1.88;;
77287;SDS011;66345;42.694;23.346;2023-02-21T14:10:47;5.10;;;1.60;;
77287;SDS011;66345;42.694;23.346;2023-02-21T14:13:19;6.55;;;1.35;;
77287;SDS011;66345;42.694;23.346;2023-02-21T14:21:14;5.13;;;1.30;;
77287;SDS011;66345;42.694;23.346;2023-02-21T14:31:45;4.60;;;1.50;;
77287;SDS011;66345;42.694;23.346;2023-02-21T14:34:13;3.63;;;1.40;;
77287;SDS011;66345;42.694;23.346;2023-02-21T14:36:43;5.53;;;1.50;;
77287;SDS011;66345;42.694;23.346;2023-02-21T14:39:10;4.78;;;1.35;;
77287;SDS011;66345;42.694;23.346;2023-02-21T14:58:55;5.35;;;1.33;;
77287;SDS011;66345;42.694;23.346;2023-02-21T15:04:45;5.40;;;1.48;;
77287;SDS011;66345;42.694;23.346;2023-02-21T15:10:48;6.80;;;1.60;;
77287;SDS011;66345;42.694;23.346;2023-02-21T15:12:48;5.85;;;1.70;;
77287;SDS011;66345;42.694;23.346;2023-02-21T15:15:23;5.45;;;1.52;;
77287;SDS011;66345;42.694;23.346;2023-02-21T15:18:11;6.05;;;1.90;;
77287;SDS011;66345;42.694;23.346;2023-02-21T15:23:29;5.82;;;1.83;;
77287;SDS011;66345;42.694;23.346;2023-02-21T15:25:56;4.32;;;1.42;;
77287;SDS011;66345;42.694;23.346;2023-02-21T15:28:24;5.00;;;1.80;;
77287;SDS011;66345;42.694;23.346;2023-02-21T15:30:59;8.68;;;2.15;;
77287;SDS011;66345;42.694;23.346;2023-02-21T15:33:29;8.60;;;2.25;;
77287;SDS011;66345;42.694;23.346;2023-02-21T15:35:58;6.15;;;2.10;;
77287;SDS011;66345;42.694;23.346;2023-02-21T15:38:49;6.28;;;2.30;;
77287;SDS011;66345;42.694;23.346;2023-02-21T15:41:34;9.15;;;2.30;;
77287;SDS011;66345;42.694;23.346;2023-02-21T15:44:06;7.38;;;2.40;;
77287;SDS011;66345;42.694;23.346;2023-02-21T15:46:50;8.40;;;2.63;;
77287;SDS011;66345;42.694;23.346;2023-02-21T15:49:29;7.18;;;2.63;;
77287;SDS011;66345;42.694;23.346;2023-02-21T15:51:59;6.35;;;2.30;;
77287;SDS011;66345;42.694;23.346;2023-02-21T15:54:31;6.95;;;2.60;;
77287;SDS011;66345;42.694;23.346;2023-02-21T15:59:36;7.75;;;2.53;;
77287;SDS011;66345;42.694;23.346;2023-02-21T16:04:39;10.10;;;3.42;;
77287;SDS011;66345;42.694;23.346;2023-02-21T16:07:06;10.73;;;3.92;;
77287;SDS011;66345;42.694;23.346;2023-02-21T16:10:00;11.38;;;3.50;;
77287;SDS011;66345;42.694;23.346;2023-02-21T16:12:34;9.02;;;3.50;;
77287;SDS011;66345;42.694;23.346;2023-02-21T16:15:13;8.50;;;3.35;;
77287;SDS011;66345;42.694;23.346;2023-02-21T16:18:09;9.15;;;3.30;;
77287;SDS011;66345;42.694;23.346;2023-02-21T16:20:36;10.52;;;4.43;;
77287;SDS011;66345;42.694;23.346;2023-02-21T16:28:27;13.68;;;6.03;;
77287;SDS011;66345;42.694;23.346;2023-02-21T16:30:55;13.93;;;4.28;;
77287;SDS011;66345;42.694;23.346;2023-02-21T16:33:23;11.18;;;3.83;;
77287;SDS011;66345;42.694;23.346;2023-02-21T16:35:49;11.75;;;4.18;;
77287;SDS011;66345;42.694;23.346;2023-02-21T16:38:17;10.15;;;4.00;;
77287;SDS011;66345;42.694;23.346;2023-02-21T16:40:44;8.95;;;3.20;;
77287;SDS011;66345;42.694;23.346;2023-02-21T16:43:18;10.70;;;3.65;;
77287;SDS011;66345;42.694;23.346;2023-02-21T16:45:45;14.03;;;4.60;;
77287;SDS011;66345;42.694;23.346;2023-02-21T16:48:25;16.58;;;5.90;;
77287;SDS011;66345;42.694;23.346;2023-02-21T16:50:57;12.80;;;4.95;;
77287;SDS011;66345;42.694;23.346;2023-02-21T16:53:27;11.57;;;5.13;;
77287;SDS011;66345;42.694;23.346;2023-02-21T16:55:54;12.88;;;5.40;;
77287;SDS011;66345;42.694;23.346;2023-02-21T16:58:30;12.07;;;5.20;;
77287;SDS011;66345;42.694;23.346;2023-02-21T17:01:02;13.73;;;5.53;;
77287;SDS011;66345;42.694;23.346;2023-02-21T17:03:31;12.93;;;4.88;;
77287;SDS011;66345;42.694;23.346;2023-02-21T17:05:57;11.90;;;4.43;;
77287;SDS011;66345;42.694;23.346;2023-02-21T17:08:23;13.75;;;5.35;;
77287;SDS011;66345;42.694;23.346;2023-02-21T17:10:51;18.52;;;5.32;;
77287;SDS011;66345;42.694;23.346;2023-02-21T17:13:16;21.23;;;6.97;;
77287;SDS011;66345;42.694;23.346;2023-02-21T17:15:41;17.87;;;6.67;;
77287;SDS011;66345;42.694;23.346;2023-02-21T17:18:07;13.17;;;6.00;;
77287;SDS011;66345;42.694;23.346;2023-02-21T17:20:32;14.20;;;5.88;;
77287;SDS011;66345;42.694;23.346;2023-02-21T17:22:58;17.30;;;5.00;;
77287;SDS011;66345;42.694;23.346;2023-02-21T17:25:24;14.55;;;4.65;;
77287;SDS011;66345;42.694;23.346;2023-02-21T17:27:50;18.08;;;5.18;;
77287;SDS011;66345;42.694;23.346;2023-02-21T17:30:18;17.77;;;5.55;;
77287;SDS011;66345;42.694;23.346;2023-02-21T17:32:44;19.52;;;4.78;;
77287;SDS011;66345;42.694;23.346;2023-02-21T17:35:11;14.60;;;4.63;;
77287;SDS011;66345;42.694;23.346;2023-02-21T17:37:39;17.05;;;4.95;;
77287;SDS011;66345;42.694;23.346;2023-02-21T17:40:08;17.30;;;4.78;;
77287;SDS011;66345;42.694;23.346;2023-02-21T17:42:34;21.48;;;6.85;;
77287;SDS011;66345;42.694;23.346;2023-02-21T17:45:00;17.23;;;5.57;;
77287;SDS011;66345;42.694;23.346;2023-02-21T17:47:26;19.23;;;6.32;;
77287;SDS011;66345;42.694;23.346;2023-02-21T17:49:52;24.42;;;5.95;;
77287;SDS011;66345;42.694;23.346;2023-02-21T17:52:18;19.30;;;6.07;;
77287;SDS011;66345;42.694;23.346;2023-02-21T17:54:44;20.08;;;6.20;;
77287;SDS011;66345;42.694;23.346;2023-02-21T17:57:10;18.33;;;7.43;;